createdAt,value
2022-10-24T00:01:39.136Z,87.28
2022-10-24T00:04:08.409Z,87.27
2022-10-24T00:06:36.091Z,87.44
2022-10-24T00:09:03.974Z,87.64
2022-10-24T00:11:31.754Z,87.76
2022-10-24T00:14:00.479Z,87.82
2022-10-24T00:16:28.700Z,87.84
2022-10-24T00:18:56.388Z,87.83
2022-10-24T00:21:24.226Z,87.84
2022-10-24T00:23:52.727Z,87.77
2022-10-24T00:26:21.059Z,87.65
2022-10-24T00:28:48.926Z,87.58
2022-10-24T00:31:19.460Z,87.51
2022-10-24T00:33:47.481Z,87.41
2022-10-24T00:36:19.716Z,87.35
2022-10-24T00:38:49.737Z,87.28
2022-10-24T00:41:33.512Z,87.16
2022-10-24T00:44:22.367Z,87.03
2022-10-24T00:46:53.543Z,86.88
2022-10-24T00:49:44.045Z,86.78
2022-10-24T00:52:15.417Z,86.67
2022-10-24T00:54:43.963Z,86.60
2022-10-24T00:57:38.733Z,86.54
2022-10-24T01:00:15.820Z,86.48
2022-10-24T01:02:44.744Z,86.45
2022-10-24T01:05:15.093Z,86.42
2022-10-24T01:07:53.886Z,86.39
2022-10-24T01:10:49.964Z,86.36
2022-10-24T01:13:26.221Z,86.38
2022-10-24T01:16:05.737Z,86.39
2022-10-24T01:18:43.596Z,86.37
2022-10-24T01:21:29.502Z,86.38
2022-10-24T01:24:21.577Z,86.42
2022-10-24T01:27:31.022Z,86.39
2022-10-24T01:30:05.446Z,86.34
2022-10-24T01:32:42.388Z,86.34
2022-10-24T01:35:46.745Z,86.33
2022-10-24T01:38:37.423Z,86.31
2022-10-24T01:41:10.639Z,86.30
2022-10-24T01:43:45.300Z,86.32
2022-10-24T01:46:21.209Z,86.34
2022-10-24T01:48:57.223Z,86.33
2022-10-24T01:51:30.669Z,86.38
2022-10-24T01:53:59.534Z,86.47
2022-10-24T01:56:28.367Z,86.50
2022-10-24T01:59:42.529Z,86.51
2022-10-24T02:02:19.603Z,86.51
2022-10-24T02:05:08.131Z,86.46
2022-10-24T02:07:41.261Z,86.46
2022-10-24T02:10:16.329Z,86.50
2022-10-24T02:12:49.423Z,86.52
2022-10-24T02:15:32.066Z,86.53
2022-10-24T02:18:01.762Z,86.52
2022-10-24T02:20:37.720Z,86.50
2022-10-24T02:23:25.907Z,86.46
2022-10-24T02:25:58.838Z,86.45
2022-10-24T02:28:34.398Z,86.41
2022-10-24T02:31:13.287Z,86.44
2022-10-24T02:33:44.851Z,86.51
2022-10-24T02:36:17.866Z,86.54
2022-10-24T02:38:49.207Z,86.55
2022-10-24T02:41:27.034Z,86.57
2022-10-24T02:43:58.031Z,86.51
2022-10-24T02:46:27.157Z,86.50
2022-10-24T02:49:00.343Z,86.43
2022-10-24T02:51:32.570Z,86.35
2022-10-24T02:54:02.092Z,86.32
2022-10-24T02:56:31.760Z,86.27
2022-10-24T02:58:59.670Z,86.23
2022-10-24T03:01:27.532Z,86.19
2022-10-24T03:03:56.042Z,86.14
2022-10-24T03:06:24.893Z,86.10
2022-10-24T03:08:52.551Z,86.05
2022-10-24T03:11:20.208Z,86.03
2022-10-24T03:13:47.934Z,86.00
2022-10-24T03:16:16.418Z,85.97
2022-10-24T03:18:44.759Z,85.93
2022-10-24T03:21:12.418Z,85.91
2022-10-24T03:23:40.113Z,85.89
2022-10-24T03:26:09.604Z,85.88
2022-10-24T03:28:38.231Z,85.84
2022-10-24T03:31:07.840Z,85.84
2022-10-24T03:33:35.519Z,85.81
2022-10-24T03:36:06.101Z,85.77
2022-10-24T03:38:33.768Z,85.75
2022-10-24T03:41:02.210Z,85.77
2022-10-24T03:43:29.896Z,85.74
2022-10-24T03:45:57.570Z,85.72
2022-10-24T03:48:26.566Z,85.74
2022-10-24T03:50:54.523Z,85.74
2022-10-24T03:53:22.465Z,85.75
2022-10-24T03:55:50.333Z,85.73
2022-10-24T03:58:19.088Z,85.71
2022-10-24T04:00:46.834Z,85.68
2022-10-24T04:03:14.523Z,85.66
2022-10-24T04:05:42.316Z,85.63
2022-10-24T04:08:10.121Z,85.60
2022-10-24T04:10:40.380Z,85.59
2022-10-24T04:13:08.081Z,85.58
2022-10-24T04:15:35.919Z,85.61
2022-10-24T04:18:03.758Z,85.64
2022-10-24T04:20:31.616Z,85.71
2022-10-24T04:23:01.201Z,85.72
2022-10-24T04:25:33.007Z,85.70
2022-10-24T04:28:00.697Z,85.66
2022-10-24T04:30:30.225Z,85.64
2022-10-24T04:32:58.041Z,85.63
2022-10-24T04:35:27.269Z,85.66
2022-10-24T04:37:54.960Z,85.66
2022-10-24T04:40:22.696Z,85.63
2022-10-24T04:42:50.679Z,85.56
2022-10-24T04:45:19.573Z,85.51
2022-10-24T04:47:47.679Z,85.47
2022-10-24T04:50:16.385Z,85.45
2022-10-24T04:52:44.037Z,85.47
2022-10-24T04:55:11.825Z,85.50
2022-10-24T04:57:39.540Z,85.54
2022-10-24T05:00:08.428Z,85.58
2022-10-24T05:02:36.287Z,85.59
2022-10-24T05:05:05.589Z,85.57
2022-10-24T05:07:33.325Z,85.56
2022-10-24T05:10:01.881Z,85.56
2022-10-24T05:12:29.596Z,85.54
2022-10-24T05:14:58.149Z,85.52
2022-10-24T05:17:26.868Z,85.53
2022-10-24T05:19:54.683Z,85.52
2022-10-24T05:22:22.697Z,85.48
2022-10-24T05:24:51.424Z,85.43
2022-10-24T05:27:24.905Z,85.37
2022-10-24T05:29:53.997Z,85.29
2022-10-24T05:32:24.399Z,85.26
2022-10-24T05:34:52.498Z,85.22
2022-10-24T05:37:20.270Z,85.14
2022-10-24T05:39:48.008Z,85.10
2022-10-24T05:42:17.149Z,85.07
2022-10-24T05:44:44.971Z,85.04
2022-10-24T05:47:13.079Z,84.99
2022-10-24T05:49:40.856Z,84.97
2022-10-24T05:52:08.756Z,84.93
2022-10-24T05:54:48.725Z,84.86
2022-10-24T05:57:26.835Z,84.78
2022-10-24T05:59:54.478Z,84.67
2022-10-24T06:02:23.966Z,84.65
2022-10-24T06:04:55.083Z,84.53
2022-10-24T06:07:27.716Z,84.49
2022-10-24T06:09:55.552Z,84.42
2022-10-24T06:12:23.333Z,84.35
2022-10-24T06:14:51.012Z,84.30
2022-10-24T06:17:18.768Z,84.23
2022-10-24T06:19:46.511Z,84.14
2022-10-24T06:22:14.178Z,84.08
2022-10-24T06:24:43.387Z,84.03
2022-10-24T06:27:11.217Z,83.91
2022-10-24T06:29:41.303Z,83.80
2022-10-24T06:32:09.089Z,83.71
2022-10-24T06:34:36.796Z,83.66
2022-10-24T06:37:04.799Z,83.35
2022-10-24T06:39:32.577Z,83.20
2022-10-24T06:42:02.210Z,83.11
2022-10-24T06:44:29.894Z,83.01
2022-10-24T06:46:57.581Z,82.99
2022-10-24T06:49:26.670Z,82.95
2022-10-24T06:51:54.410Z,82.74
2022-10-24T06:54:24.128Z,82.71
2022-10-24T06:56:54.967Z,82.61
2022-10-24T06:59:22.673Z,82.54
2022-10-24T07:01:50.581Z,82.57
2022-10-24T07:04:19.913Z,82.38
2022-10-24T07:06:47.608Z,82.22
2022-10-24T07:09:15.683Z,81.95
2022-10-24T07:11:46.173Z,81.87
2022-10-24T07:14:13.950Z,81.70
2022-10-24T07:16:41.680Z,81.30
2022-10-24T07:19:10.626Z,80.86
2022-10-24T07:21:39.750Z,80.47
2022-10-24T07:24:07.840Z,80.39
2022-10-24T07:26:35.669Z,80.07
2022-10-24T07:29:06.414Z,79.46
2022-10-24T07:31:36.775Z,78.88
2022-10-24T07:34:09.523Z,78.27
2022-10-24T07:36:42.863Z,77.78
2022-10-24T07:39:13.530Z,77.20
2022-10-24T07:41:42.274Z,76.93
2022-10-24T07:44:12.820Z,76.74
2022-10-24T07:46:43.325Z,76.50
2022-10-24T07:49:12.258Z,76.29
2022-10-24T07:51:42.788Z,76.55
2022-10-24T07:54:10.697Z,76.85
2022-10-24T07:56:38.466Z,76.84
2022-10-24T07:59:09.619Z,76.40
2022-10-24T08:01:42.586Z,76.26
2022-10-24T08:04:13.770Z,76.26
2022-10-24T08:06:44.016Z,76.20
2022-10-24T08:09:11.776Z,76.16
2022-10-24T08:11:41.259Z,75.62
2022-10-24T08:14:09.007Z,75.28
2022-10-24T08:16:39.485Z,74.84
2022-10-24T08:19:07.207Z,74.89
2022-10-24T08:21:36.353Z,74.73
2022-10-24T08:24:04.265Z,74.54
2022-10-24T08:26:33.154Z,74.47
2022-10-24T08:29:01.849Z,74.42
2022-10-24T08:31:29.570Z,74.60
2022-10-24T08:33:57.326Z,74.53
2022-10-24T08:36:31.478Z,74.69
2022-10-24T08:39:01.236Z,74.59
2022-10-24T08:41:41.087Z,74.38
2022-10-24T08:44:31.057Z,73.80
2022-10-24T08:47:11.027Z,72.91
2022-10-24T08:49:50.304Z,72.14
2022-10-24T08:52:36.226Z,71.21
2022-10-24T08:55:25.118Z,70.32
2022-10-24T08:58:03.148Z,69.18
2022-10-24T09:00:39.935Z,69.14
2022-10-24T09:03:54.516Z,69.28
2022-10-24T09:06:26.805Z,68.03
2022-10-24T09:09:04.405Z,66.01
2022-10-24T09:12:01.380Z,64.24
2022-10-24T09:14:36.313Z,63.76
2022-10-24T09:17:44.312Z,63.54
2022-10-24T09:20:25.801Z,64.00
2022-10-24T09:22:57.281Z,64.76
2022-10-24T09:25:32.501Z,64.88
2022-10-24T09:28:06.431Z,64.40
2022-10-24T09:30:37.693Z,64.69
2022-10-24T09:33:23.265Z,64.32
2022-10-24T09:35:54.495Z,64.45
2022-10-24T09:38:34.220Z,64.18
2022-10-24T09:41:19.023Z,64.15
2022-10-24T09:44:02.205Z,64.24
2022-10-24T09:46:42.871Z,64.27
2022-10-24T09:49:14.237Z,64.53
2022-10-24T09:51:49.215Z,63.70
2022-10-24T09:54:29.016Z,63.60
2022-10-24T09:57:12.543Z,63.42
2022-10-24T09:59:48.639Z,63.07
2022-10-24T10:02:37.759Z,63.11
2022-10-24T10:05:07.586Z,63.17
2022-10-24T10:07:48.446Z,63.38
2022-10-24T10:10:18.882Z,63.85
2022-10-24T10:12:56.999Z,64.09
2022-10-24T10:15:31.304Z,63.68
2022-10-24T10:18:23.692Z,63.88
2022-10-24T10:21:24.600Z,64.56
2022-10-24T10:23:56.406Z,65.02
2022-10-24T10:26:42.893Z,64.72
2022-10-24T10:29:19.343Z,64.26
2022-10-24T10:31:58.345Z,64.38
2022-10-24T10:34:48.269Z,64.77
2022-10-24T10:37:48.439Z,64.88
2022-10-24T10:40:21.517Z,64.09
2022-10-24T10:43:18.496Z,63.58
2022-10-24T10:46:12.370Z,62.97
2022-10-24T10:48:48.607Z,62.34
2022-10-24T10:51:35.846Z,61.71
2022-10-24T10:54:45.054Z,61.64
2022-10-24T10:57:18.479Z,61.34
2022-10-24T11:00:01.500Z,61.10
2022-10-24T11:02:52.956Z,60.90
2022-10-24T11:05:49.694Z,60.54
2022-10-24T11:08:25.399Z,60.69
2022-10-24T11:11:14.796Z,60.93
2022-10-24T11:14:04.481Z,60.98
2022-10-24T11:16:36.364Z,60.45
2022-10-24T11:19:22.090Z,60.06
2022-10-24T11:21:51.259Z,60.42
2022-10-24T11:24:23.549Z,60.62
2022-10-24T11:27:09.821Z,60.67
2022-10-24T11:29:47.385Z,61.01
2022-10-24T11:32:21.007Z,61.90
2022-10-24T11:34:57.980Z,62.50
2022-10-24T11:37:35.400Z,63.08
2022-10-24T11:40:13.040Z,63.45
2022-10-24T11:42:59.394Z,63.82
2022-10-24T11:45:48.590Z,64.12
2022-10-24T11:48:42.477Z,64.49
2022-10-24T11:51:24.523Z,64.93
2022-10-24T11:54:04.166Z,65.15
2022-10-24T11:56:51.270Z,65.42
2022-10-24T11:59:24.813Z,65.74
2022-10-24T12:02:09.274Z,66.07
2022-10-24T12:05:04.855Z,66.51
2022-10-24T12:08:10.217Z,66.87
2022-10-24T12:11:06.052Z,67.00
2022-10-24T12:14:13.288Z,67.13
2022-10-24T12:17:13.472Z,67.34
2022-10-24T12:19:44.922Z,67.29
2022-10-24T12:22:28.486Z,67.47
2022-10-24T12:25:33.474Z,67.68
2022-10-24T12:28:09.636Z,67.87
2022-10-24T12:30:37.422Z,68.16
2022-10-24T12:33:25.540Z,68.46
2022-10-24T12:35:57.505Z,68.75
2022-10-24T12:38:28.246Z,69.10
2022-10-24T12:41:21.186Z,69.27
2022-10-24T12:43:50.363Z,69.70
2022-10-24T12:46:38.436Z,69.88
2022-10-24T12:49:08.830Z,70.14
2022-10-24T12:51:41.598Z,70.44
2022-10-24T12:54:12.289Z,70.64
2022-10-24T12:56:50.202Z,70.69
2022-10-24T12:59:27.454Z,70.96
2022-10-24T13:02:13.578Z,71.18
2022-10-24T13:05:04.887Z,71.39
2022-10-24T13:07:41.810Z,71.20
2022-10-24T13:10:26.015Z,71.40
2022-10-24T13:13:25.232Z,71.40
2022-10-24T13:16:29.470Z,71.31
2022-10-24T13:18:57.122Z,71.57
2022-10-24T13:21:46.910Z,71.56
2022-10-24T13:24:15.367Z,71.63
2022-10-24T13:26:54.837Z,71.75
2022-10-24T13:29:28.366Z,72.38
2022-10-24T13:32:05.131Z,72.56
2022-10-24T13:34:53.485Z,72.67
2022-10-24T13:37:31.391Z,72.71
2022-10-24T13:40:15.932Z,72.65
2022-10-24T13:42:52.278Z,72.88
2022-10-24T13:45:38.598Z,72.91
2022-10-24T13:48:16.397Z,72.75
2022-10-24T13:50:57.688Z,72.67
2022-10-24T13:53:31.356Z,72.72
2022-10-24T13:56:14.717Z,72.65
2022-10-24T13:58:46.167Z,72.23
2022-10-24T14:01:30.395Z,71.53
2022-10-24T14:04:00.510Z,71.28
2022-10-24T14:06:33.909Z,70.94
2022-10-24T14:09:10.589Z,70.82
2022-10-24T14:11:50.021Z,70.33
2022-10-24T14:14:32.912Z,70.29
2022-10-24T14:17:23.928Z,70.27
2022-10-24T14:20:02.679Z,69.92
2022-10-24T14:22:41.914Z,70.06
2022-10-24T14:25:24.063Z,70.18
2022-10-24T14:27:55.527Z,70.34
2022-10-24T14:30:34.401Z,70.53
2022-10-24T14:33:09.022Z,70.67
2022-10-24T14:35:36.792Z,70.83
2022-10-24T14:38:14.860Z,71.02
2022-10-24T14:40:53.872Z,71.16
2022-10-24T14:43:31.440Z,71.36
2022-10-24T14:46:08.908Z,71.42
2022-10-24T14:48:39.473Z,71.57
2022-10-24T14:51:39.421Z,71.69
2022-10-24T14:54:35.769Z,71.77
2022-10-24T14:57:17.242Z,71.89
2022-10-24T14:59:50.820Z,72.04
2022-10-24T15:02:43.294Z,72.18
2022-10-24T15:05:19.340Z,72.33
2022-10-24T15:08:09.399Z,72.31
2022-10-24T15:10:42.257Z,72.37
2022-10-24T15:13:16.218Z,72.39
2022-10-24T15:15:43.852Z,72.49
2022-10-24T15:18:29.910Z,72.64
2022-10-24T15:21:08.020Z,72.76
2022-10-24T15:23:46.152Z,72.87
2022-10-24T15:26:23.881Z,72.99
2022-10-24T15:28:57.583Z,73.06
2022-10-24T15:31:28.873Z,73.16
2022-10-24T15:33:56.698Z,73.25
2022-10-24T15:36:31.375Z,73.29
2022-10-24T15:39:16.695Z,73.29
2022-10-24T15:41:44.393Z,73.45
2022-10-24T15:44:33.397Z,73.47
2022-10-24T15:47:02.434Z,73.55
2022-10-24T15:49:32.577Z,73.54
2022-10-24T15:52:01.431Z,73.57
2022-10-24T15:54:29.414Z,73.73
2022-10-24T15:56:59.462Z,73.76
2022-10-24T15:59:29.568Z,73.95
2022-10-24T16:02:03.316Z,74.06
2022-10-24T16:04:34.072Z,74.03
2022-10-24T16:07:03.507Z,74.14
2022-10-24T16:09:32.929Z,74.34
2022-10-24T16:12:00.615Z,74.34
2022-10-24T16:14:30.820Z,74.34
2022-10-24T16:16:58.909Z,74.38
2022-10-24T16:19:28.098Z,74.44
2022-10-24T16:21:58.611Z,74.51
2022-10-24T16:24:29.256Z,74.69
2022-10-24T16:26:57.229Z,74.83
2022-10-24T16:29:24.960Z,74.92
2022-10-24T16:31:52.742Z,74.92
2022-10-24T16:34:21.601Z,74.82
2022-10-24T16:36:55.015Z,74.87
2022-10-24T16:39:24.986Z,74.85
2022-10-24T16:41:55.229Z,74.82
2022-10-24T16:44:24.618Z,74.94
2022-10-24T16:46:54.240Z,75.02
2022-10-24T16:49:24.771Z,75.23
2022-10-24T16:51:52.503Z,75.13
2022-10-24T16:54:22.965Z,75.30
2022-10-24T16:56:54.068Z,75.20
2022-10-24T16:59:22.207Z,75.34
2022-10-24T17:01:50.530Z,75.23
2022-10-24T17:04:19.383Z,75.36
2022-10-24T17:06:47.288Z,75.34
2022-10-24T17:09:16.282Z,75.39
2022-10-24T17:11:46.904Z,75.52
2022-10-24T17:14:14.826Z,75.59
2022-10-24T17:16:46.080Z,75.82
2022-10-24T17:19:16.559Z,76.01
2022-10-24T17:21:50.385Z,76.10
2022-10-24T17:24:24.510Z,76.27
2022-10-24T17:26:54.134Z,76.48
2022-10-24T17:29:32.866Z,76.42
2022-10-24T17:32:00.816Z,76.51
2022-10-24T17:34:30.082Z,76.64
2022-10-24T17:37:16.339Z,76.69
2022-10-24T17:40:01.697Z,77.01
2022-10-24T17:42:30.884Z,77.05
2022-10-24T17:44:58.739Z,77.38
2022-10-24T17:47:30.363Z,77.30
2022-10-24T17:49:58.000Z,77.43
2022-10-24T17:52:25.682Z,77.55
2022-10-24T17:54:53.347Z,77.50
2022-10-24T17:57:21.079Z,77.65
2022-10-24T17:59:48.773Z,77.76
2022-10-24T18:02:16.760Z,77.84
2022-10-24T18:04:46.566Z,77.83
2022-10-24T18:07:16.155Z,77.91
2022-10-24T18:09:43.829Z,77.94
2022-10-24T18:12:14.247Z,78.04
2022-10-24T18:14:42.058Z,77.99
2022-10-24T18:17:09.755Z,77.97
2022-10-24T18:19:37.428Z,77.95
2022-10-24T18:22:05.162Z,78.07
2022-10-24T18:24:37.936Z,78.06
2022-10-24T18:27:05.574Z,78.01
2022-10-24T18:29:34.445Z,78.07
2022-10-24T18:32:04.316Z,78.26
2022-10-24T18:34:32.187Z,78.20
2022-10-24T18:36:59.817Z,78.35
2022-10-24T18:39:30.168Z,78.29
2022-10-24T18:42:20.886Z,78.36
2022-10-24T18:44:51.038Z,78.61
2022-10-24T18:47:24.815Z,78.75
2022-10-24T18:49:55.441Z,78.75
2022-10-24T18:52:32.994Z,78.67
2022-10-24T18:55:18.357Z,78.65
2022-10-24T18:57:50.031Z,78.65
2022-10-24T19:00:22.181Z,78.78
2022-10-24T19:02:59.597Z,78.81
2022-10-24T19:05:40.355Z,78.92
2022-10-24T19:08:24.390Z,78.72
2022-10-24T19:10:55.903Z,78.84
2022-10-24T19:13:27.976Z,79.02
2022-10-24T19:16:00.254Z,79.05
2022-10-24T19:18:31.804Z,79.08
2022-10-24T19:21:01.482Z,79.11
2022-10-24T19:23:29.151Z,79.06
2022-10-24T19:25:58.751Z,79.23
2022-10-24T19:28:26.451Z,79.61
2022-10-24T19:30:54.175Z,79.56
2022-10-24T19:33:27.979Z,79.45
2022-10-24T19:35:56.162Z,79.63
2022-10-24T19:38:24.780Z,79.74
2022-10-24T19:40:55.200Z,79.90
2022-10-24T19:43:29.258Z,79.91
2022-10-24T19:48:46.115Z,80.08
2022-10-24T19:51:13.814Z,80.14
2022-10-24T19:53:43.366Z,80.22
2022-10-24T19:56:27.319Z,80.32
2022-10-24T19:58:56.194Z,80.38
2022-10-24T20:01:29.660Z,80.37
2022-10-24T20:04:01.403Z,80.32
2022-10-24T20:06:31.881Z,80.30
2022-10-24T20:08:59.621Z,80.22
2022-10-24T20:11:27.465Z,80.23
2022-10-24T20:13:55.218Z,80.42
2022-10-24T20:16:22.919Z,80.30
2022-10-24T20:18:51.904Z,80.41
2022-10-24T20:21:19.619Z,80.59
2022-10-24T20:23:49.101Z,80.61
2022-10-24T20:26:25.967Z,80.73
2022-10-24T20:28:56.034Z,80.76
2022-10-24T20:31:39.223Z,80.88
2022-10-24T20:34:10.986Z,81.04
2022-10-24T20:36:43.975Z,80.98
2022-10-24T20:39:16.298Z,80.98
2022-10-24T20:41:45.535Z,80.94
2022-10-24T20:44:16.779Z,80.94
2022-10-24T20:46:45.913Z,81.06
2022-10-24T20:49:14.804Z,81.08
2022-10-24T20:51:44.431Z,81.30
2022-10-24T20:54:12.242Z,81.12
2022-10-24T20:56:42.629Z,81.04
2022-10-24T20:59:14.560Z,81.12
2022-10-24T21:01:43.465Z,81.13
2022-10-24T21:04:13.673Z,81.20
2022-10-24T21:06:44.561Z,81.29
2022-10-24T21:09:14.803Z,81.44
2022-10-24T21:11:42.486Z,81.47
2022-10-24T21:14:15.452Z,81.68
2022-10-24T21:16:43.151Z,81.60
2022-10-24T21:19:13.052Z,81.54
2022-10-24T21:21:43.200Z,81.67
2022-10-24T21:24:15.317Z,81.77
2022-10-24T21:26:43.089Z,81.79
2022-10-24T21:29:33.400Z,82.05
2022-10-24T21:32:01.277Z,82.10
2022-10-24T21:34:31.728Z,82.07
2022-10-24T21:37:04.879Z,82.25
2022-10-24T21:39:32.632Z,82.23
2022-10-24T21:42:00.662Z,82.13
2022-10-24T21:44:29.910Z,82.26
2022-10-24T21:46:57.720Z,82.11
2022-10-24T21:49:26.129Z,82.05
2022-10-24T21:51:55.382Z,81.95
2022-10-24T21:54:26.963Z,81.88
2022-10-24T21:56:54.686Z,81.86
2022-10-24T21:59:24.242Z,81.84
2022-10-24T22:01:54.056Z,81.93
2022-10-24T22:04:23.289Z,81.98
2022-10-24T22:06:50.994Z,82.07
2022-10-24T22:09:23.887Z,82.15
2022-10-24T22:11:59.224Z,82.20
2022-10-24T22:14:26.920Z,82.22
2022-10-24T22:16:54.613Z,82.30
2022-10-24T22:19:24.633Z,82.35
2022-10-24T22:21:53.396Z,82.32
2022-10-24T22:24:24.459Z,82.26
2022-10-24T22:26:53.945Z,82.20
2022-10-24T22:29:24.917Z,82.16
2022-10-24T22:31:54.338Z,82.18
2022-10-24T22:34:25.409Z,82.13
2022-10-24T22:37:05.556Z,82.07
2022-10-24T22:39:33.535Z,82.06
2022-10-24T22:42:01.415Z,82.15
2022-10-24T22:44:29.339Z,82.03
2022-10-24T22:47:17.590Z,82.00
2022-10-24T22:50:22.948Z,81.99
2022-10-24T22:52:50.959Z,82.12
2022-10-24T22:55:28.015Z,82.00
2022-10-24T22:57:55.953Z,81.97
2022-10-24T23:00:24.616Z,81.90
2022-10-24T23:03:04.797Z,81.82
2022-10-24T23:05:43.101Z,81.85
2022-10-24T23:08:30.147Z,81.83
2022-10-24T23:10:58.165Z,81.80
2022-10-24T23:13:26.272Z,81.81
2022-10-24T23:16:00.747Z,81.89
2022-10-24T23:18:28.691Z,81.95
2022-10-24T23:21:24.934Z,81.98
2022-10-24T23:23:52.944Z,81.89
2022-10-24T23:26:40.573Z,81.81
2022-10-24T23:29:31.606Z,81.82
2022-10-24T23:32:02.962Z,81.78
2022-10-24T23:34:32.066Z,81.76
2022-10-24T23:37:03.941Z,81.74
2022-10-24T23:39:35.594Z,81.70
2022-10-24T23:42:05.486Z,81.71
2022-10-24T23:44:33.522Z,81.69
2022-10-24T23:47:33.162Z,81.74
2022-10-24T23:50:15.855Z,81.80
2022-10-24T23:53:12.874Z,81.74
2022-10-24T23:55:40.725Z,81.81
2022-10-24T23:58:13.392Z,81.93
